Time;durP1;ratioP1;P1;durP2;ratioP2;P2;SDS_P1;SDS_P2;PMS_P1;PMS_P2;Temp;Humidity;BMP_temperature;BMP_pressure;BME280_temperature;BME280_humidity;BME280_pressure;Samples;Min_cycle;Max_cycle;Signal;HPM_P1;HPM_P2
2021/12/26 00:00:15;;;;;;;3.28;2.28;;;;;;;-3.02;67.83;100980.50;5033562;28;20029;-77
2021/12/26 00:02:41;;;;;;;;;;;;;;;-3.13;67.67;100972.56;5033494;28;20022;-69
2021/12/26 00:05:07;;;;;;;5.50;2.25;;;;;;;-3.18;68.23;100970.78;5033284;28;19966;-69
2021/12/26 00:07:33;;;;;;;3.85;2.15;;;;;;;-3.31;69.25;100970.59;5032793;28;20033;-69
2021/12/26 00:09:58;;;;;;;5.38;2.50;;;;;;;-3.36;69.62;100977.44;5033128;28;20025;-70
2021/12/26 00:12:23;;;;;;;4.63;2.50;;;;;;;-3.46;70.72;100988.50;5033220;28;20025;-69
2021/12/26 00:14:49;;;;;;;4.43;2.40;;;;;;;-3.49;69.83;100978.09;5033285;28;20018;-70
2021/12/26 00:17:14;;;;;;;3.95;2.13;;;;;;;-3.49;68.79;100973.78;5031694;28;20029;-69
2021/12/26 00:19:40;;;;;;;5.22;2.40;;;;;;;-3.47;69.04;100977.25;5033087;28;20091;-75
2021/12/26 00:22:05;;;;;;;6.38;2.53;;;;;;;-3.50;69.25;100973.78;5033200;28;20057;-69
2021/12/26 00:24:31;;;;;;;5.90;2.55;;;;;;;-3.50;69.20;100973.78;5032676;28;20023;-70
2021/12/26 00:26:56;;;;;;;5.60;2.80;;;;;;;-3.54;68.83;100978.03;5032298;28;20124;-70
2021/12/26 00:29:22;;;;;;;4.60;2.40;;;;;;;-3.58;69.55;100981.44;5033016;28;20025;-70
2021/12/26 00:31:47;;;;;;;3.25;2.17;;;;;;;-3.64;69.83;100974.41;5033262;28;20029;-73
2021/12/26 00:34:13;;;;;;;3.78;2.35;;;;;;;-3.64;69.63;100971.84;5033065;28;20033;-70
2021/12/26 00:36:38;;;;;;;5.88;2.25;;;;;;;-3.64;69.90;100983.91;5032923;28;20064;-70
2021/12/26 00:39:04;;;;;;;4.03;2.25;;;;;;;-3.66;70.24;100990.78;5032759;28;20083;-73
2021/12/26 00:41:30;;;;;;;4.82;2.45;;;;;;;-3.67;69.85;100976.09;5032890;28;20029;-69
2021/12/26 00:43:55;;;;;;;5.88;2.50;;;;;;;-3.63;69.47;100964.97;5032685;28;20099;-70
2021/12/26 00:46:20;;;;;;;4.40;2.08;;;;;;;-3.64;69.96;100969.25;5033129;28;20029;-69
2021/12/26 00:48:46;;;;;;;3.70;2.13;;;;;;;-3.65;70.00;100966.63;5032103;28;20076;-69
2021/12/26 00:51:11;;;;;;;3.88;2.20;;;;;;;-3.67;69.71;100964.03;5033012;28;20030;-69
2021/12/26 00:53:37;;;;;;;5.07;2.30;;;;;;;-3.67;71.12;100970.91;5032976;28;20109;-69
2021/12/26 00:56:03;;;;;;;3.72;2.17;;;;;;;-3.66;71.20;100967.47;5032891;28;20428;-75
2021/12/26 00:58:28;;;;;;;3.55;2.03;;;;;;;-3.65;70.49;100964.06;5032333;28;20545;-69
2021/12/26 01:00:53;;;;;;;5.40;2.15;;;;;;;-3.68;70.81;100959.69;5032454;28;20055;-69
2021/12/26 01:03:20;;;;;;;3.45;2.17;;;;;;;-3.68;70.09;100962.28;5032943;28;20108;-69
2021/12/26 01:05:53;;;;;;;2.47;1.77;;;;;;;-3.73;69.11;100963.03;5032792;28;20064;-69
2021/12/26 01:08:21;;;;;;;5.47;2.50;;;;;;;-3.83;69.97;100962.91;5032281;28;20033;-72
2021/12/26 01:11:04;;;;;;;4.43;2.25;;;;;;;-3.80;69.71;100962.97;5032438;28;20028;-72
2021/12/26 01:13:37;;;;;;;3.60;2.13;;;;;;;-3.81;69.47;100962.94;5036549;28;20171;-69
2021/12/26 01:16:06;;;;;;;6.10;2.40;;;;;;;-3.87;69.88;100968.03;5036747;28;20038;-72
2021/12/26 01:18:40;;;;;;;3.92;2.15;;;;;;;-3.87;70.04;100968.88;5035940;28;20025;-71
2021/12/26 01:21:18;;;;;;;3.75;2.13;;;;;;;-3.85;69.54;100974.06;5036373;28;20029;-71
2021/12/26 01:23:46;;;;;;;4.10;2.22;;;;;;;-3.90;70.41;100974.03;5035179;28;20036;-71
2021/12/26 01:26:12;;;;;;;4.95;2.47;;;;;;;-3.89;70.49;100970.56;5035943;28;20029;-71
2021/12/26 01:28:37;;;;;;;3.97;2.00;;;;;;;-3.86;70.05;100977.50;5036127;28;20017;-72
2021/12/26 01:31:03;;;;;;;5.10;2.45;;;;;;;-3.84;69.93;100968.91;5035984;28;20030;-71
2021/12/26 01:33:28;;;;;;;5.63;2.30;;;;;;;-3.84;70.88;100952.53;5036157;28;20480;-70
2021/12/26 01:35:55;;;;;;;3.42;2.03;;;;;;;-3.87;70.80;100947.31;5036174;28;20025;-70
2021/12/26 01:38:21;;;;;;;4.07;2.10;;;;;;;-3.80;70.52;100952.63;5036004;28;20022;-73
2021/12/26 01:40:51;;;;;;;5.38;2.42;;;;;;;-3.85;69.99;100950.78;5035449;28;20383;-71
2021/12/26 01:43:20;;;;;;;5.45;2.10;;;;;;;-3.82;68.79;100954.31;5035076;28;20388;-69
2021/12/26 01:45:48;;;;;;;4.50;2.05;;;;;;;-3.83;68.72;100944.78;5035588;28;20485;-73
2021/12/26 01:48:14;;;;;;;3.50;1.92;;;;;;;-3.85;69.53;100948.19;5035978;28;20116;-74
2021/12/26 01:50:40;;;;;;;6.05;2.13;;;;;;;-3.92;70.32;100948.97;5035380;28;20113;-70
2021/12/26 01:53:06;;;;;;;5.95;2.45;;;;;;;-3.97;71.39;100952.31;5035338;28;20075;-69
2021/12/26 01:55:44;;;;;;;4.55;2.20;;;;;;;-3.94;70.70;100946.34;5036015;28;20026;-75
2021/12/26 01:58:28;;;;;;;5.78;2.60;;;;;;;-3.91;70.25;100945.50;5035517;28;20034;-70
2021/12/26 02:01:01;;;;;;;4.55;2.15;;;;;;;-3.91;69.68;100932.56;5035065;28;20017;-74
2021/12/26 02:03:27;;;;;;;4.07;2.13;;;;;;;-3.91;69.08;100936.06;5035529;28;20112;-69
2021/12/26 02:05:54;;;;;;;5.63;2.47;;;;;;;-3.91;70.02;100938.63;5035463;28;20105;-70
2021/12/26 02:08:19;;;;;;;3.80;2.10;;;;;;;-3.90;69.61;100936.91;5035803;28;20039;-73
2021/12/26 02:10:45;;;;;;;3.60;2.20;;;;;;;-3.95;69.03;100931.69;5035355;28;20437;-72
2021/12/26 02:13:11;;;;;;;5.13;2.08;;;;;;;-3.91;68.60;100930.88;5034939;28;20041;-73
2021/12/26 02:15:36;;;;;;;4.22;2.30;;;;;;;-3.93;68.20;100929.97;5035144;28;20034;-72
2021/12/26 02:18:03;;;;;;;4.68;2.20;;;;;;;-3.96;69.48;100935.97;5035390;28;20359;-73
2021/12/26 02:21:02;;;;;;;4.18;2.10;;;;;;;-3.97;69.83;100929.03;5035202;28;20022;-72
2021/12/26 02:23:34;;;;;;;4.78;2.42;;;;;;;-3.94;70.08;100933.41;5033278;28;20040;-72
2021/12/26 02:28:40;;;;;;;5.90;2.55;;;;;;;-3.93;70.25;100926.53;5034910;28;20481;-72
2021/12/26 02:31:06;;;;;;;5.00;2.50;;;;;;;-3.93;70.38;100923.94;5034972;28;20080;-72
2021/12/26 02:33:32;;;;;;;4.22;2.15;;;;;;;-3.95;71.15;100929.09;5035034;28;20033;-72
2021/12/26 02:35:58;;;;;;;4.40;2.15;;;;;;;-4.00;71.32;100918.66;5034644;28;20060;-71
2021/12/26 02:38:24;;;;;;;6.85;2.50;;;;;;;-4.04;72.15;100919.47;5034955;28;20432;-71
2021/12/26 02:40:51;;;;;;;5.20;2.38;;;;;;;-4.07;71.94;100923.72;5034976;28;20029;-71
2021/12/26 02:43:18;;;;;;;3.47;1.90;;;;;;;-4.05;71.28;100920.31;5034139;28;20033;-71
2021/12/26 02:45:45;;;;;;;3.22;2.28;;;;;;;-4.09;71.69;100915.94;5034213;28;20034;-71
2021/12/26 02:48:11;;;;;;;5.45;2.28;;;;;;;-4.12;71.97;100928.78;5034483;28;20042;-71
2021/12/26 02:50:39;;;;;;;4.28;2.30;;;;;;;-4.18;72.15;100924.41;5034627;28;20029;-70
2021/12/26 02:53:05;;;;;;;4.35;2.30;;;;;;;-4.13;72.23;100912.41;5034566;28;20151;-71
2021/12/26 02:55:31;;;;;;;4.85;2.40;;;;;;;-4.10;71.84;100916.78;5034456;28;20045;-70
2021/12/26 02:57:59;;;;;;;5.80;2.17;;;;;;;-4.11;71.58;100910.72;5034017;28;20037;-71
2021/12/26 03:00:28;;;;;;;4.35;2.22;;;;;;;-4.11;71.87;100896.91;5034099;28;20026;-71
2021/12/26 03:02:55;;;;;;;2.90;2.03;;;;;;;-4.08;71.82;100901.28;5034581;28;20052;-70
2021/12/26 03:05:24;;;;;;;3.70;2.13;;;;;;;-4.09;72.00;100899.53;5034290;28;20022;-70
2021/12/26 03:07:49;;;;;;;5.57;2.40;;;;;;;-4.07;71.32;100892.69;5034130;28;20469;-70
2021/12/26 03:10:22;;;;;;;4.38;2.25;;;;;;;-4.11;72.50;100881.41;5033753;28;20036;-70
2021/12/26 03:12:57;;;;;;;4.60;2.20;;;;;;;-4.09;72.38;100878.84;5034585;28;20116;-70
2021/12/26 03:15:25;;;;;;;4.32;2.13;;;;;;;-4.08;72.06;100876.25;5034012;28;20470;-70
2021/12/26 03:17:51;;;;;;;4.72;2.22;;;;;;;-4.09;71.86;100876.25;5033821;28;20075;-70
2021/12/26 03:20:19;;;;;;;3.38;2.10;;;;;;;-4.11;72.26;100874.50;5033840;28;20566;-70
2021/12/26 03:22:45;;;;;;;5.10;2.10;;;;;;;-4.13;72.72;100858.13;5034324;28;20057;-70
2021/12/26 03:25:22;;;;;;;6.63;2.40;;;;;;;-4.14;73.28;100865.84;5034100;28;20060;-70
2021/12/26 03:27:49;;;;;;;3.72;2.10;;;;;;;-4.07;72.59;100861.63;5035597;28;20473;-70
2021/12/26 03:30:17;;;;;;;5.40;2.22;;;;;;;-4.08;72.44;100873.69;5035466;28;20449;-70
2021/12/26 03:32:42;;;;;;;5.85;2.28;;;;;;;-4.09;72.98;100866.78;5033945;28;20026;-70
2021/12/26 03:35:08;;;;;;;6.68;2.58;;;;;;;-4.10;73.10;100865.03;5033238;28;20088;-69
2021/12/26 03:37:34;;;;;;;5.60;2.40;;;;;;;-4.13;73.75;100885.66;5033689;28;20029;-69
2021/12/26 03:40:00;;;;;;;4.97;2.35;;;;;;;-4.18;74.58;100877.84;5033436;28;20484;-69
2021/12/26 03:42:26;;;;;;;4.25;2.45;;;;;;;-4.17;74.40;100879.59;5033317;28;20068;-69
2021/12/26 03:44:51;;;;;;;3.45;2.20;;;;;;;-4.17;74.71;100877.03;5029778;28;20125;-70
2021/12/26 03:47:18;;;;;;;2.55;1.98;;;;;;;-4.13;74.19;100880.50;5015796;28;20076;-69
2021/12/26 03:49:44;;;;;;;3.72;1.98;;;;;;;-4.15;74.33;100884.78;5033294;28;20025;-69
2021/12/26 03:52:09;;;;;;;4.35;2.38;;;;;;;-4.11;74.07;100878.81;5033180;28;20039;-69
2021/12/26 03:54:35;;;;;;;4.13;2.40;;;;;;;-4.05;72.89;100873.75;5033559;28;20088;-69
2021/12/26 03:57:00;;;;;;;4.20;2.15;;;;;;;-4.01;71.96;100867.78;5033495;28;20029;-69
2021/12/26 03:59:27;;;;;;;4.35;2.20;;;;;;;-3.97;71.38;100861.78;5033328;28;20025;-70
2021/12/26 04:01:56;;;;;;;5.03;2.20;;;;;;;-3.95;70.82;100869.59;5033000;28;20101;-69
2021/12/26 04:04:21;;;;;;;4.35;2.20;;;;;;;-3.93;71.32;100865.28;5033361;28;20421;-69
2021/12/26 04:06:47;;;;;;;4.53;2.20;;;;;;;-3.91;70.65;100860.13;5033316;28;20029;-69
2021/12/26 04:09:13;;;;;;;4.10;2.15;;;;;;;-3.96;70.72;100853.19;5033632;28;20036;-69
2021/12/26 04:11:41;;;;;;;5.07;2.25;;;;;;;-3.92;70.72;100864.44;5032638;28;20067;-69
2021/12/26 04:14:07;;;;;;;4.18;2.17;;;;;;;-3.91;70.76;100863.63;5033565;28;20049;-69
2021/12/26 04:16:33;;;;;;;3.65;2.50;;;;;;;-3.92;71.50;100867.03;5032931;28;20490;-69
2021/12/26 04:18:58;;;;;;;4.15;2.28;;;;;;;-3.90;71.24;100867.94;5033368;28;20061;-69
2021/12/26 04:21:23;;;;;;;4.90;2.10;;;;;;;-3.92;70.78;100868.78;5032914;28;20108;-69
2021/12/26 04:23:49;;;;;;;4.05;2.10;;;;;;;-3.98;71.04;100861.78;5032893;28;20156;-69
2021/12/26 04:26:14;;;;;;;3.90;2.25;;;;;;;-4.00;71.13;100864.34;5033159;28;20025;-69
2021/12/26 04:28:39;;;;;;;3.42;2.03;;;;;;;-4.02;71.70;100867.75;5033131;28;20029;-69
2021/12/26 04:31:05;;;;;;;5.93;2.40;;;;;;;-4.02;71.79;100847.91;5032944;28;20101;-69
2021/12/26 04:33:30;;;;;;;4.00;2.20;;;;;;;-4.03;71.42;100843.63;5032480;28;20372;-69
2021/12/26 04:35:55;;;;;;;5.75;2.10;;;;;;;-4.06;72.10;100850.44;5033194;28;20087;-69
2021/12/26 04:38:21;;;;;;;4.10;2.15;;;;;;;-4.11;72.17;100840.88;5033033;28;20018;-69
2021/12/26 04:40:46;;;;;;;4.63;2.22;;;;;;;-4.15;72.97;100839.09;5033280;28;20487;-69
2021/12/26 04:43:11;;;;;;;4.50;2.08;;;;;;;-4.17;73.31;100840.81;5032356;28;20553;-69
2021/12/26 04:45:37;;;;;;;4.70;2.45;;;;;;;-4.15;73.03;100846.84;5034070;28;20752;-69
2021/12/26 04:48:03;;;;;;;4.85;2.20;;;;;;;-4.14;73.34;100843.44;5036815;28;20048;-69
2021/12/26 04:50:29;;;;;;;4.03;2.38;;;;;;;-4.12;72.57;100849.50;5037268;28;20068;-69
2021/12/26 04:52:55;;;;;;;3.28;2.05;;;;;;;-4.16;72.57;100849.44;5036826;28;20029;-69
2021/12/26 04:55:23;;;;;;;5.10;2.30;;;;;;;-4.17;72.83;100845.97;5036817;28;20071;-69
2021/12/26 04:57:48;;;;;;;3.95;2.55;;;;;;;-4.17;73.15;100840.81;5036895;28;20049;-69
2021/12/26 05:00:17;;;;;;;4.35;2.20;;;;;;;-4.20;73.38;100839.88;5036927;28;20068;-69
2021/12/26 05:02:43;;;;;;;4.32;2.30;;;;;;;-4.17;72.41;100837.34;5036711;28;20031;-69
2021/12/26 05:05:10;;;;;;;5.20;2.60;;;;;;;-4.16;72.83;100844.25;5035828;28;20026;-69
2021/12/26 05:07:36;;;;;;;4.18;2.40;;;;;;;-4.18;72.64;100835.59;5036652;28;20083;-69
2021/12/26 05:10:03;;;;;;;3.55;2.00;;;;;;;-4.21;73.00;100833.84;5036667;28;20025;-69
2021/12/26 05:12:28;;;;;;;3.05;2.17;;;;;;;-4.27;73.29;100826.00;5036706;28;20468;-69
2021/12/26 05:14:54;;;;;;;4.28;2.30;;;;;;;-4.29;72.98;100832.84;5035826;28;20033;-69
2021/12/26 05:17:19;;;;;;;4.47;2.30;;;;;;;-4.26;72.73;100832.03;5036185;28;20026;-68
2021/12/26 05:19:44;;;;;;;4.60;2.30;;;;;;;-4.24;72.94;100843.28;5036447;28;20057;-69
2021/12/26 05:22:10;;;;;;;4.05;2.13;;;;;;;-4.26;73.80;100842.38;5036483;28;20078;-69
2021/12/26 05:24:35;;;;;;;3.47;2.20;;;;;;;-4.28;73.63;100843.22;5036317;28;20493;-68
2021/12/26 05:27:01;;;;;;;5.18;2.25;;;;;;;-4.21;73.51;100838.16;5020312;28;20128;-67
2021/12/26 05:29:26;;;;;;;5.18;2.58;;;;;;;-4.25;73.71;100836.38;5016284;28;20478;-69
2021/12/26 05:31:53;;;;;;;4.68;2.47;;;;;;;-4.28;73.70;100825.13;5016495;28;20025;-69
2021/12/26 05:34:20;;;;;;;4.13;2.20;;;;;;;-4.28;74.23;100830.28;5016550;28;20018;-69
2021/12/26 05:36:45;;;;;;;6.55;2.33;;;;;;;-4.36;74.28;100821.56;5027576;28;20116;-69
2021/12/26 05:39:11;;;;;;;4.03;2.42;;;;;;;-4.34;74.54;100830.19;5036120;28;20156;-68
2021/12/26 05:41:36;;;;;;;3.38;2.13;;;;;;;-4.33;74.50;100824.16;5036146;28;20053;-70
2021/12/26 05:44:02;;;;;;;6.70;2.42;;;;;;;-4.31;74.90;100809.56;5035740;28;20060;-69
2021/12/26 05:46:27;;;;;;;3.72;2.25;;;;;;;-4.35;75.46;100805.19;5035293;28;20045;-68
2021/12/26 05:48:53;;;;;;;5.28;2.33;;;;;;;-4.36;75.47;100800.88;5035706;28;20022;-69
2021/12/26 05:51:18;;;;;;;4.63;2.40;;;;;;;-4.38;75.55;100810.31;5035957;28;20116;-69
2021/12/26 05:53:43;;;;;;;6.03;2.30;;;;;;;-4.36;75.59;100807.75;5035871;28;20030;-69
2021/12/26 05:56:09;;;;;;;5.75;2.30;;;;;;;-4.38;75.86;100804.28;5035705;28;20030;-68
2021/12/26 05:58:35;;;;;;;3.97;2.40;;;;;;;-4.38;75.98;100802.56;5034400;28;20481;-68
2021/12/26 06:01:01;;;;;;;5.97;2.38;;;;;;;-4.43;75.94;100806.78;5035641;28;20076;-68
2021/12/26 06:03:26;;;;;;;5.47;2.63;;;;;;;-4.47;76.53;100812.75;5035983;28;20029;-69
2021/12/26 06:05:52;;;;;;;5.20;2.60;;;;;;;-4.46;76.76;100804.16;5035739;28;20029;-68
2021/12/26 06:08:17;;;;;;;5.40;2.30;;;;;;;-4.45;77.04;100801.59;5034961;28;20026;-68
2021/12/26 06:10:43;;;;;;;3.95;2.25;;;;;;;-4.48;77.09;100805.84;5035490;28;20065;-68
2021/12/26 06:13:08;;;;;;;4.68;2.30;;;;;;;-4.53;76.78;100805.75;5035700;28;20025;-68
2021/12/26 06:15:34;;;;;;;4.72;2.00;;;;;;;-4.50;76.25;100816.16;5035457;28;20034;-68
2021/12/26 06:17:59;;;;;;;4.32;2.10;;;;;;;-4.52;76.33;100804.06;5034756;28;20036;-69
2021/12/26 06:20:24;;;;;;;3.67;2.15;;;;;;;-4.48;76.30;100811.88;5035150;28;20421;-68
2021/12/26 06:22:50;;;;;;;5.97;2.35;;;;;;;-4.43;76.00;100814.53;5035467;28;20112;-69
2021/12/26 06:25:17;;;;;;;5.05;2.45;;;;;;;-4.51;76.23;100804.06;5035264;28;20025;-68
2021/12/26 06:27:42;;;;;;;5.60;2.47;;;;;;;-4.51;77.11;100805.81;5035128;28;20025;-68
2021/12/26 06:30:09;;;;;;;3.75;2.20;;;;;;;-4.50;76.52;100813.56;5034571;28;20034;-68
2021/12/26 06:32:35;;;;;;;5.82;2.58;;;;;;;-4.51;76.67;100805.81;5035015;28;20044;-69
2021/12/26 06:35:01;;;;;;;5.45;2.63;;;;;;;-4.54;77.29;100819.53;5034851;28;20469;-68
2021/12/26 06:37:28;;;;;;;6.03;2.55;;;;;;;-4.51;76.48;100811.81;5028478;28;20033;-68
2021/12/26 06:39:53;;;;;;;4.97;2.22;;;;;;;-4.51;76.09;100803.22;5028209;28;20041;-68
2021/12/26 06:42:19;;;;;;;5.82;2.38;;;;;;;-4.53;76.36;100805.75;5024821;28;20056;-67
2021/12/26 06:44:44;;;;;;;4.88;2.50;;;;;;;-4.52;75.85;100801.47;5014941;28;20049;-67
2021/12/26 06:47:09;;;;;;;5.88;2.60;;;;;;;-4.51;75.38;100800.63;5014845;28;20085;-68
2021/12/26 06:49:35;;;;;;;5.38;2.47;;;;;;;-4.57;75.53;100800.53;5026221;28;20029;-68
2021/12/26 06:52:00;;;;;;;3.58;2.22;;;;;;;-4.56;76.02;100804.84;5034390;28;20413;-68
2021/12/26 06:54:25;;;;;;;4.22;2.47;;;;;;;-4.59;75.92;100803.09;5034326;28;20037;-68
2021/12/26 06:56:51;;;;;;;6.55;2.42;;;;;;;-4.59;75.93;100794.44;5026094;28;20017;-68
2021/12/26 06:59:17;;;;;;;3.60;2.20;;;;;;;-4.55;75.78;100801.41;5027803;28;20462;-68
2021/12/26 07:01:42;;;;;;;3.58;2.45;;;;;;;-4.51;75.67;100792.88;5034277;28;20456;-69
2021/12/26 07:04:08;;;;;;;4.72;2.20;;;;;;;-4.49;75.38;100791.16;5034349;28;20025;-70
2021/12/26 07:06:33;;;;;;;4.00;2.30;;;;;;;-4.52;74.53;100797.16;5034089;28;20092;-69
2021/12/26 07:08:58;;;;;;;4.55;2.30;;;;;;;-4.57;75.36;100796.22;5032548;28;20036;-68
2021/12/26 07:11:24;;;;;;;5.75;2.53;;;;;;;-4.54;74.65;100791.13;5034249;28;20488;-70
2021/12/26 07:13:49;;;;;;;3.20;2.15;;;;;;;-4.52;75.01;100789.41;5034294;28;20025;-69
2021/12/26 07:16:14;;;;;;;5.80;2.40;;;;;;;-4.54;75.13;100792.81;5033946;28;20385;-67
2021/12/26 07:18:39;;;;;;;4.50;2.28;;;;;;;-4.51;74.84;100785.97;5034010;28;20061;-68
2021/12/26 07:21:05;;;;;;;3.75;2.15;;;;;;;-4.50;75.52;100786.84;5033582;28;20021;-69
2021/12/26 07:23:30;;;;;;;4.57;2.30;;;;;;;-4.49;74.80;100788.59;5033994;28;20071;-68
2021/12/26 07:25:56;;;;;;;4.72;2.28;;;;;;;-4.49;74.72;100789.47;5034013;28;20034;-69
2021/12/26 07:28:21;;;;;;;9.07;2.60;;;;;;;-4.48;74.60;100782.56;5034061;28;20108;-68
2021/12/26 07:30:47;;;;;;;3.28;2.20;;;;;;;-4.45;74.32;100786.09;5033575;28;20856;-69
2021/12/26 07:33:12;;;;;;;3.45;2.38;;;;;;;-4.49;75.07;100792.06;5033926;28;20587;-69
2021/12/26 07:35:37;;;;;;;3.72;2.20;;;;;;;-4.51;75.38;100792.88;5033575;28;20029;-66
2021/12/26 07:38:03;;;;;;;4.30;2.40;;;;;;;-4.49;75.20;100792.06;5033613;28;20029;-69
2021/12/26 07:40:28;;;;;;;4.78;2.47;;;;;;;-4.49;74.81;100792.06;5033790;28;20112;-69
2021/12/26 07:42:53;;;;;;;6.45;2.60;;;;;;;-4.53;76.18;100798.00;5031629;28;20417;-68
2021/12/26 07:45:19;;;;;;;5.00;2.38;;;;;;;-4.49;76.17;100802.41;5033537;28;20144;-67
2021/12/26 07:47:44;;;;;;;3.75;2.17;;;;;;;-4.48;75.80;100798.94;5033534;28;20033;-67
2021/12/26 07:50:10;;;;;;;6.40;2.50;;;;;;;-4.49;76.02;100794.63;5033650;28;20036;-68
2021/12/26 07:52:40;;;;;;;6.05;2.30;;;;;;;-4.52;76.66;100797.16;5033180;28;20026;-67
2021/12/26 07:55:10;;;;;;;3.85;2.25;;;;;;;-4.49;76.62;100799.81;5033727;28;20021;-66
2021/12/26 07:57:36;;;;;;;5.35;2.70;;;;;;;-4.47;76.57;100798.09;5032994;28;20026;-67
2021/12/26 08:00:03;;;;;;;4.13;2.38;;;;;;;-4.41;75.76;100794.75;5032859;28;20037;-67
2021/12/26 08:02:28;;;;;;;5.10;2.30;;;;;;;-4.39;75.56;100794.78;5032800;28;20469;-68
2021/12/26 08:04:53;;;;;;;3.65;2.22;;;;;;;-4.37;75.34;100793.94;5032464;28;20112;-68
2021/12/26 08:07:18;;;;;;;3.47;2.30;;;;;;;-4.39;75.24;100793.03;5032942;28;20029;-67
2021/12/26 08:09:44;;;;;;;4.07;2.22;;;;;;;-4.37;75.94;100798.25;5033369;28;20021;-68
2021/12/26 08:12:09;;;;;;;4.93;2.60;;;;;;;-4.32;75.88;100794.91;5033104;28;20477;-67
2021/12/26 08:14:35;;;;;;;3.70;2.30;;;;;;;-4.29;75.32;100801.81;5032988;28;20413;-68
2021/12/26 08:17:01;;;;;;;5.60;2.80;;;;;;;-4.24;75.19;100797.59;5033375;28;20095;-67
2021/12/26 08:19:26;;;;;;;4.93;2.58;;;;;;;-4.27;76.01;100805.31;5033154;28;20461;-68
2021/12/26 08:21:52;;;;;;;5.15;2.10;;;;;;;-4.15;75.83;100796.88;5033080;28;20086;-66
2021/12/26 08:24:18;;;;;;;5.03;2.45;;;;;;;-4.08;75.22;100800.41;5032610;28;20461;-68
2021/12/26 08:26:49;;;;;;;6.25;2.55;;;;;;;-4.03;75.19;100799.66;5032929;28;20038;-68
2021/12/26 08:29:21;;;;;;;4.63;2.30;;;;;;;-4.02;75.24;100784.97;5033102;28;20101;-68
2021/12/26 08:31:47;;;;;;;5.63;2.97;;;;;;;-4.00;75.40;100785.88;5033352;28;20041;-69
2021/12/26 08:34:13;;;;;;;4.95;2.40;;;;;;;-3.95;75.33;100799.75;5033607;28;20469;-67
2021/12/26 08:36:39;;;;;;;7.35;3.00;;;;;;;-3.93;75.34;100790.28;5043947;28;20018;-68
2021/12/26 08:39:04;;;;;;;5.38;2.92;;;;;;;-3.87;75.89;100800.72;5033027;28;20028;-69
2021/12/26 08:41:30;;;;;;;4.85;2.70;;;;;;;-3.82;75.52;100793.03;5046879;28;20021;-68
2021/12/26 08:43:55;;;;;;;6.03;2.90;;;;;;;-3.79;75.13;100795.63;5034329;28;20021;-68
2021/12/26 08:46:22;;;;;;;4.93;2.85;;;;;;;-3.76;75.28;100794.81;5030383;28;20046;-68
2021/12/26 08:48:47;;;;;;;6.18;2.90;;;;;;;-3.68;74.72;100803.56;5032150;28;20041;-67
2021/12/26 08:51:13;;;;;;;6.47;2.80;;;;;;;-3.64;74.67;100795.84;5032707;28;20465;-67
2021/12/26 08:53:39;;;;;;;7.82;2.97;;;;;;;-3.61;74.51;100797.59;5031954;28;20457;-70
2021/12/26 08:56:04;;;;;;;5.90;2.78;;;;;;;-3.58;74.58;100799.34;5032094;28;20025;-68
2021/12/26 08:58:30;;;;;;;5.63;3.00;;;;;;;-3.54;74.50;100802.00;5032354;28;20030;-66
2021/12/26 09:00:55;;;;;;;6.63;3.15;;;;;;;-3.51;75.31;100812.38;5021324;28;20045;-66
2021/12/26 09:03:20;;;;;;;6.15;2.80;;;;;;;-3.46;75.37;100805.53;5031680;28;20037;-67
2021/12/26 09:05:46;;;;;;;5.28;3.08;;;;;;;-3.35;75.37;100803.09;5032412;28;20028;-66
2021/12/26 09:08:11;;;;;;;5.50;2.85;;;;;;;-3.21;74.61;100800.66;5041901;28;20436;-68
2021/12/26 09:10:42;;;;;;;4.85;2.90;;;;;;;-3.08;73.04;100798.19;5052284;28;20029;-67
2021/12/26 09:13:08;;;;;;;5.18;2.83;;;;;;;-2.98;73.68;100798.31;5030772;28;20040;-67
2021/12/26 09:15:34;;;;;;;4.43;2.80;;;;;;;-2.90;73.50;100800.09;5032355;28;20029;-67
2021/12/26 09:17:59;;;;;;;6.38;3.90;;;;;;;-2.85;73.66;100794.13;5030857;28;20146;-67
2021/12/26 09:20:25;;;;;;;4.82;2.70;;;;;;;-2.76;72.71;100787.25;5047056;28;20538;-68
2021/12/26 09:22:51;;;;;;;7.00;3.90;;;;;;;-2.74;72.85;100791.59;5038957;28;20094;-67
2021/12/26 09:25:17;;;;;;;5.05;3.13;;;;;;;-2.66;72.36;100786.50;5031882;28;20083;-66
2021/12/26 09:27:42;;;;;;;6.75;3.30;;;;;;;-2.60;72.18;100790.88;5031585;28;20022;-67
2021/12/26 09:30:08;;;;;;;7.45;2.92;;;;;;;-2.59;72.02;100790.03;5032271;28;20385;-67
2021/12/26 09:32:35;;;;;;;6.07;3.33;;;;;;;-2.52;72.24;100784.00;5032967;28;20033;-68
2021/12/26 09:35:00;;;;;;;6.15;3.00;;;;;;;-2.51;71.53;100796.13;5035701;28;20089;-67
2021/12/26 09:37:26;;;;;;;7.85;3.03;;;;;;;-2.50;71.64;100797.88;5035546;28;20160;-67
2021/12/26 09:39:53;;;;;;;5.32;2.88;;;;;;;-2.45;72.43;100792.75;5035722;28;20052;-67
2021/12/26 09:42:18;;;;;;;5.40;2.90;;;;;;;-2.43;72.45;100791.00;5033906;28;20069;-65
2021/12/26 09:44:44;;;;;;;5.80;3.08;;;;;;;-2.29;72.80;100794.56;5034082;28;20125;-66
2021/12/26 09:47:10;;;;;;;6.43;3.10;;;;;;;-2.22;72.18;100779.94;5034315;28;20033;-66
2021/12/26 09:49:35;;;;;;;5.53;3.08;;;;;;;-2.18;72.40;100777.34;5035422;28;20033;-67
2021/12/26 09:52:01;;;;;;;7.20;3.10;;;;;;;-2.14;72.32;100775.66;5035392;28;20373;-67
2021/12/26 09:54:26;;;;;;;5.85;3.00;;;;;;;-2.02;72.42;100774.84;5035439;28;20497;-66
2021/12/26 09:56:51;;;;;;;7.05;3.00;;;;;;;-1.99;71.86;100762.75;5035183;28;20021;-66
2021/12/26 09:59:22;;;;;;;6.60;3.38;;;;;;;-1.90;72.05;100763.69;5035182;28;20075;-67
2021/12/26 10:01:51;;;;;;;5.18;2.83;;;;;;;-1.74;71.25;100762.91;5036848;28;20060;-66
2021/12/26 10:04:28;;;;;;;7.90;3.50;;;;;;;-1.75;71.04;100752.50;5036116;28;20033;-66
2021/12/26 10:07:03;;;;;;;5.40;2.95;;;;;;;-1.60;72.10;100762.09;5046186;28;20499;-69
2021/12/26 10:09:30;;;;;;;6.25;3.40;;;;;;;-1.45;70.58;100758.69;5038861;28;20024;-68
2021/12/26 10:11:57;;;;;;;6.93;3.30;;;;;;;-1.52;70.75;100758.66;5044081;28;20037;-67
2021/12/26 10:14:25;;;;;;;8.52;3.50;;;;;;;-1.39;71.52;100751.78;5046215;28;20032;-67
2021/12/26 10:16:54;;;;;;;7.00;3.15;;;;;;;-1.26;70.42;100744.88;5047789;28;20032;-68
2021/12/26 10:19:19;;;;;;;6.13;3.58;;;;;;;-1.22;70.94;100749.19;5033067;28;20427;-67
2021/12/26 10:21:49;;;;;;;8.18;3.47;;;;;;;-1.16;70.73;100736.22;5027788;28;20100;-67
2021/12/26 10:24:19;;;;;;;5.93;3.20;;;;;;;-1.18;70.61;100739.69;5019562;28;20033;-68
2021/12/26 10:26:55;;;;;;;6.00;3.13;;;;;;;-1.17;70.59;100738.84;5024147;28;20033;-68
2021/12/26 10:29:24;;;;;;;7.55;3.80;;;;;;;-1.17;71.87;100728.44;5033336;28;20043;-66
2021/12/26 10:31:57;;;;;;;7.68;3.67;;;;;;;-1.06;71.85;100734.53;5034241;28;20025;-67
2021/12/26 10:34:35;;;;;;;9.25;3.70;;;;;;;-1.01;71.94;100731.91;5032297;28;20041;-67
2021/12/26 10:37:03;;;;;;;6.85;3.85;;;;;;;-0.88;71.61;100717.22;5014760;28;20049;-68
2021/12/26 10:39:36;;;;;;;6.82;3.50;;;;;;;-0.86;71.41;100724.16;5021682;28;20079;-67
2021/12/26 10:42:06;;;;;;;9.40;3.97;;;;;;;-0.78;71.35;100720.66;5031819;28;20486;-67
2021/12/26 10:45:02;;;;;;;6.05;3.67;;;;;;;-0.63;71.08;100709.41;5034012;28;20021;-68
2021/12/26 10:47:33;;;;;;;8.85;4.05;;;;;;;-0.60;70.95;100705.06;5034555;28;20041;-68
2021/12/26 10:50:07;;;;;;;10.10;4.05;;;;;;;-0.66;71.81;100710.25;5034106;28;20516;-68
2021/12/26 10:52:34;;;;;;;6.35;3.90;;;;;;;-0.59;71.73;100712.00;5032148;28;20045;-68
2021/12/26 10:55:03;;;;;;;7.03;4.05;;;;;;;-0.48;71.19;100706.78;5033589;28;20029;-67
2021/12/26 10:57:35;;;;;;;7.47;4.15;;;;;;;-0.46;72.16;100705.06;5034087;28;20044;-68
2021/12/26 11:00:09;;;;;;;7.82;3.90;;;;;;;-0.32;72.04;100704.13;5034175;28;20029;-67
2021/12/26 11:02:40;;;;;;;7.45;4.00;;;;;;;-0.25;72.19;100706.72;5031331;28;20025;-68
2021/12/26 11:05:12;;;;;;;9.52;4.40;;;;;;;-0.31;72.90;100711.09;5031895;28;20017;-67
2021/12/26 11:07:45;;;;;;;7.65;4.05;;;;;;;-0.15;71.89;100701.50;5030961;28;20481;-68
2021/12/26 11:10:23;;;;;;;7.25;3.90;;;;;;;-0.08;71.01;100691.06;5033198;28;20111;-68
2021/12/26 11:12:52;;;;;;;8.45;4.28;;;;;;;-0.14;71.18;100698.91;5033327;28;20473;-68
2021/12/26 11:15:20;;;;;;;8.50;4.05;;;;;;;-0.12;71.70;100697.16;5032577;28;20079;-68
2021/12/26 11:17:50;;;;;;;8.38;4.40;;;;;;;-0.13;72.18;100702.38;5033308;28;20025;-68
2021/12/26 11:20:24;;;;;;;9.60;4.93;;;;;;;-0.08;71.83;100687.59;5033220;28;20026;-69
2021/12/26 11:22:50;;;;;;;9.05;4.80;;;;;;;-0.09;72.53;100694.56;5032880;28;20022;-69
2021/12/26 11:25:16;;;;;;;9.25;4.57;;;;;;;-0.03;72.27;100685.84;5033271;28;20033;-69